sensor_id;sensor_type;location;lat;lon;timestamp;pressure;altitude;pressure_sealevel;temperature;humidity
44934;BME280;30667;43.614;1.442;2024-02-23T00:00:35;99110.91;;;8.07;100.00
44934;BME280;30667;43.614;1.442;2024-02-23T00:03:00;99111.97;;;8.06;100.00
44934;BME280;30667;43.614;1.442;2024-02-23T00:05:25;99111.97;;;8.06;100.00
44934;BME280;30667;43.614;1.442;2024-02-23T00:07:51;99101.81;;;8.03;100.00
44934;BME280;30667;43.614;1.442;2024-02-23T00:10:16;99098.00;;;8.04;100.00
44934;BME280;30667;43.614;1.442;2024-02-23T00:12:42;99102.09;;;8.01;100.00
44934;BME280;30667;43.614;1.442;2024-02-23T00:15:09;99099.13;;;7.97;100.00
44934;BME280;30667;43.614;1.442;2024-02-23T00:17:35;99094.56;;;7.98;100.00
44934;BME280;30667;43.614;1.442;2024-02-23T00:20:00;99094.31;;;7.94;100.00
44934;BME280;30667;43.614;1.442;2024-02-23T00:22:25;99089.47;;;7.91;100.00
44934;BME280;30667;43.614;1.442;2024-02-23T00:24:51;99093.28;;;7.90;100.00
44934;BME280;30667;43.614;1.442;2024-02-23T00:27:16;99083.56;;;7.89;100.00
44934;BME280;30667;43.614;1.442;2024-02-23T00:29:42;99082.56;;;7.85;100.00
44934;BME280;30667;43.614;1.442;2024-02-23T00:32:07;99076.63;;;7.83;100.00
44934;BME280;30667;43.614;1.442;2024-02-23T00:34:33;99073.94;;;7.83;100.00
44934;BME280;30667;43.614;1.442;2024-02-23T00:36:58;99080.72;;;7.80;100.00
44934;BME280;30667;43.614;1.442;2024-02-23T00:39:23;99075.06;;;7.77;100.00
44934;BME280;30667;43.614;1.442;2024-02-23T00:41:49;99078.84;;;7.76;100.00
44934;BME280;30667;43.614;1.442;2024-02-23T00:44:14;99069.16;;;7.75;100.00
44934;BME280;30667;43.614;1.442;2024-02-23T00:46:40;99076.44;;;7.74;100.00
44934;BME280;30667;43.614;1.442;2024-02-23T00:49:05;99068.94;;;7.71;100.00
44934;BME280;30667;43.614;1.442;2024-02-23T00:51:31;99070.56;;;7.67;100.00
44934;BME280;30667;43.614;1.442;2024-02-23T00:53:56;99071.94;;;7.64;100.00
44934;BME280;30667;43.614;1.442;2024-02-23T00:56:22;99066.03;;;7.62;100.00
44934;BME280;30667;43.614;1.442;2024-02-23T00:58:47;99064.44;;;7.61;100.00
44934;BME280;30667;43.614;1.442;2024-02-23T01:01:13;99057.19;;;7.57;100.00
44934;BME280;30667;43.614;1.442;2024-02-23T01:03:38;99055.06;;;7.54;100.00
44934;BME280;30667;43.614;1.442;2024-02-23T01:06:03;99052.66;;;7.52;100.00
44934;BME280;30667;43.614;1.442;2024-02-23T01:08:29;99048.63;;;7.50;100.00
44934;BME280;30667;43.614;1.442;2024-02-23T01:10:54;99046.22;;;7.48;100.00
44934;BME280;30667;43.614;1.442;2024-02-23T01:13:19;99040.31;;;7.46;100.00
44934;BME280;30667;43.614;1.442;2024-02-23T01:15:45;99043.00;;;7.46;100.00
44934;BME280;30667;43.614;1.442;2024-02-23T01:18:10;99046.53;;;7.41;100.00
44934;BME280;30667;43.614;1.442;2024-02-23T01:20:36;99044.41;;;7.38;100.00
44934;BME280;30667;43.614;1.442;2024-02-23T01:23:01;99044.97;;;7.35;100.00
44934;BME280;30667;43.614;1.442;2024-02-23T01:25:26;99057.34;;;7.36;100.00
44934;BME280;30667;43.614;1.442;2024-02-23T01:27:52;99060.31;;;7.35;100.00
44934;BME280;30667;43.614;1.442;2024-02-23T01:30:17;99061.09;;;7.35;100.00
44934;BME280;30667;43.614;1.442;2024-02-23T01:32:44;99063.56;;;7.32;100.00
44934;BME280;30667;43.614;1.442;2024-02-23T01:35:10;99064.91;;;7.34;100.00
44934;BME280;30667;43.614;1.442;2024-02-23T01:37:35;99061.09;;;7.35;100.00
44934;BME280;30667;43.614;1.442;2024-02-23T01:40:01;99049.28;;;7.36;100.00
44934;BME280;30667;43.614;1.442;2024-02-23T01:42:26;99044.16;;;7.35;100.00
44934;BME280;30667;43.614;1.442;2024-02-23T01:44:52;99042.56;;;7.34;100.00
44934;BME280;30667;43.614;1.442;2024-02-23T01:47:18;99034.25;;;7.30;100.00
44934;BME280;30667;43.614;1.442;2024-02-23T01:49:46;99032.34;;;7.31;100.00
44934;BME280;30667;43.614;1.442;2024-02-23T01:52:12;99019.44;;;7.33;100.00
44934;BME280;30667;43.614;1.442;2024-02-23T01:54:38;99014.84;;;7.33;100.00
44934;BME280;30667;43.614;1.442;2024-02-23T01:57:04;99001.91;;;7.35;100.00
44934;BME280;30667;43.614;1.442;2024-02-23T01:59:29;99000.03;;;7.36;100.00
44934;BME280;30667;43.614;1.442;2024-02-23T02:01:55;98988.16;;;7.37;100.00
44934;BME280;30667;43.614;1.442;2024-02-23T02:04:21;98987.63;;;7.40;100.00
44934;BME280;30667;43.614;1.442;2024-02-23T02:06:47;98987.63;;;7.40;100.00
44934;BME280;30667;43.614;1.442;2024-02-23T02:09:13;98988.16;;;7.37;100.00
44934;BME280;30667;43.614;1.442;2024-02-23T02:12:04;98978.50;;;7.36;100.00
44934;BME280;30667;43.614;1.442;2024-02-23T02:14:30;98980.38;;;7.35;100.00
44934;BME280;30667;43.614;1.442;2024-02-23T02:16:56;98973.13;;;7.36;100.00
44934;BME280;30667;43.614;1.442;2024-02-23T02:19:22;98973.66;;;7.38;100.00
44934;BME280;30667;43.614;1.442;2024-02-23T02:21:47;98970.44;;;7.36;100.00
44934;BME280;30667;43.614;1.442;2024-02-23T02:24:12;98971.78;;;7.33;100.00
44934;BME280;30667;43.614;1.442;2024-02-23T02:26:38;98964.00;;;7.32;100.00
44934;BME280;30667;43.614;1.442;2024-02-23T02:29:03;98967.78;;;7.31;100.00
44934;BME280;30667;43.614;1.442;2024-02-23T02:31:29;98967.75;;;7.36;100.00
44934;BME280;30667;43.614;1.442;2024-02-23T02:33:54;98973.41;;;7.34;100.00
44934;BME280;30667;43.614;1.442;2024-02-23T02:36:19;98969.66;;;7.30;100.00
44934;BME280;30667;43.614;1.442;2024-02-23T02:38:45;98965.94;;;7.26;100.00
44934;BME280;30667;43.614;1.442;2024-02-23T02:41:10;98957.34;;;7.24;100.00
44934;BME280;30667;43.614;1.442;2024-02-23T02:43:36;98958.44;;;7.23;100.00
44934;BME280;30667;43.614;1.442;2024-02-23T02:46:01;98960.84;;;7.24;100.00
44934;BME280;30667;43.614;1.442;2024-02-23T02:48:27;98953.06;;;7.23;100.00
44934;BME280;30667;43.614;1.442;2024-02-23T02:50:52;98953.34;;;7.21;100.00
44934;BME280;30667;43.614;1.442;2024-02-23T02:53:18;98955.75;;;7.23;100.00
44934;BME280;30667;43.614;1.442;2024-02-23T02:55:43;98947.41;;;7.19;100.00
44934;BME280;30667;43.614;1.442;2024-02-23T02:58:11;98947.97;;;7.16;100.00
44934;BME280;30667;43.614;1.442;2024-02-23T03:00:36;98952.56;;;7.16;100.00
44934;BME280;30667;43.614;1.442;2024-02-23T03:03:02;98948.25;;;7.15;100.00
44934;BME280;30667;43.614;1.442;2024-02-23T03:05:27;98949.63;;;7.12;100.00
44934;BME280;30667;43.614;1.442;2024-02-23T03:07:52;98952.31;;;7.12;100.00
44934;BME280;30667;43.614;1.442;2024-02-23T03:10:18;98944.03;;;7.08;100.00
44934;BME280;30667;43.614;1.442;2024-02-23T03:12:43;98937.03;;;7.07;100.00
44934;BME280;30667;43.614;1.442;2024-02-23T03:15:09;98932.16;;;7.09;100.00
44934;BME280;30667;43.614;1.442;2024-02-23T03:17:37;98934.06;;;7.09;100.00
44934;BME280;30667;43.614;1.442;2024-02-23T03:20:03;98931.38;;;7.09;100.00
44934;BME280;30667;43.614;1.442;2024-02-23T03:22:37;98933.78;;;7.11;100.00
44934;BME280;30667;43.614;1.442;2024-02-23T03:25:04;98936.47;;;7.11;100.00
44934;BME280;30667;43.614;1.442;2024-02-23T03:27:34;98932.72;;;7.06;100.00
44934;BME280;30667;43.614;1.442;2024-02-23T03:30:01;98929.50;;;7.04;100.00
44934;BME280;30667;43.614;1.442;2024-02-23T03:32:26;98931.41;;;7.04;100.00
44934;BME280;30667;43.614;1.442;2024-02-23T03:34:51;98933.56;;;7.02;100.00
44934;BME280;30667;43.614;1.442;2024-02-23T03:37:17;98929.00;;;7.02;100.00
44934;BME280;30667;43.614;1.442;2024-02-23T03:39:42;98924.41;;;7.03;100.00
44934;BME280;30667;43.614;1.442;2024-02-23T03:42:08;98922.00;;;7.01;100.00
44934;BME280;30667;43.614;1.442;2024-02-23T03:44:33;98914.22;;;7.00;100.00
44934;BME280;30667;43.614;1.442;2024-02-23T03:46:58;98909.13;;;6.98;100.00
44934;BME280;30667;43.614;1.442;2024-02-23T03:49:24;98914.00;;;6.96;100.00
44934;BME280;30667;43.614;1.442;2024-02-23T03:51:49;98903.78;;;6.93;100.00
44934;BME280;30667;43.614;1.442;2024-02-23T03:54:15;98907.56;;;6.92;100.00
44934;BME280;30667;43.614;1.442;2024-02-23T03:56:41;98899.53;;;6.87;100.00
44934;BME280;30667;43.614;1.442;2024-02-23T03:59:07;98899.03;;;6.85;100.00
44934;BME280;30667;43.614;1.442;2024-02-23T04:01:37;98891.75;;;6.85;100.00
44934;BME280;30667;43.614;1.442;2024-02-23T04:04:04;98898.47;;;6.83;100.00
44934;BME280;30667;43.614;1.442;2024-02-23T04:06:29;98893.69;;;6.80;100.00
44934;BME280;30667;43.614;1.442;2024-02-23T04:08:54;98886.97;;;6.77;100.00
44934;BME280;30667;43.614;1.442;2024-02-23T04:11:21;98893.41;;;6.76;100.00
44934;BME280;30667;43.614;1.442;2024-02-23T04:13:47;98889.66;;;6.77;100.00
44934;BME280;30667;43.614;1.442;2024-02-23T04:16:12;98881.88;;;6.76;100.00
44934;BME280;30667;43.614;1.442;2024-02-23T04:18:38;98875.69;;;6.75;100.00
44934;BME280;30667;43.614;1.442;2024-02-23T04:21:03;98879.69;;;6.78;100.00
44934;BME280;30667;43.614;1.442;2024-02-23T04:23:29;98880.25;;;6.75;100.00
44934;BME280;30667;43.614;1.442;2024-02-23T04:25:54;98879.97;;;6.76;100.00
44934;BME280;30667;43.614;1.442;2024-02-23T04:28:19;98878.94;;;6.72;100.00
44934;BME280;30667;43.614;1.442;2024-02-23T04:30:45;98889.16;;;6.70;100.00
44934;BME280;30667;43.614;1.442;2024-02-23T04:33:10;98883.78;;;6.70;100.00
44934;BME280;30667;43.614;1.442;2024-02-23T04:35:35;98879.50;;;6.69;100.00
44934;BME280;30667;43.614;1.442;2024-02-23T04:38:01;98881.63;;;6.72;100.00
44934;BME280;30667;43.614;1.442;2024-02-23T04:40:27;98872.75;;;6.71;100.00
44934;BME280;30667;43.614;1.442;2024-02-23T04:42:52;98873.03;;;6.70;100.00
44934;BME280;30667;43.614;1.442;2024-02-23T04:45:18;98873.84;;;6.70;100.00
44934;BME280;30667;43.614;1.442;2024-02-23T04:47:43;98876.81;;;6.69;100.00
44934;BME280;30667;43.614;1.442;2024-02-23T04:50:11;98871.44;;;6.69;100.00
44934;BME280;30667;43.614;1.442;2024-02-23T04:52:37;98877.88;;;6.68;100.00
44934;BME280;30667;43.614;1.442;2024-02-23T04:55:03;98858.78;;;6.69;100.00
44934;BME280;30667;43.614;1.442;2024-02-23T04:57:28;98861.75;;;6.68;100.00
44934;BME280;30667;43.614;1.442;2024-02-23T04:59:53;98866.91;;;6.64;100.00
44934;BME280;30667;43.614;1.442;2024-02-23T05:02:19;98862.03;;;6.66;100.00
44934;BME280;30667;43.614;1.442;2024-02-23T05:04:44;98857.47;;;6.67;100.00
44934;BME280;30667;43.614;1.442;2024-02-23T05:07:09;98860.47;;;6.65;100.00
44934;BME280;30667;43.614;1.442;2024-02-23T05:09:35;98860.72;;;6.64;100.00
44934;BME280;30667;43.614;1.442;2024-02-23T05:12:00;98855.91;;;6.61;100.00
44934;BME280;30667;43.614;1.442;2024-02-23T05:14:26;98854.84;;;6.57;100.00
44934;BME280;30667;43.614;1.442;2024-02-23T05:16:52;98859.16;;;6.58;100.00
44934;BME280;30667;43.614;1.442;2024-02-23T05:19:17;98854.06;;;6.56;100.00
44934;BME280;30667;43.614;1.442;2024-02-23T05:21:42;98855.41;;;6.53;100.00
44934;BME280;30667;43.614;1.442;2024-02-23T05:24:08;98858.63;;;6.55;100.00
44934;BME280;30667;43.614;1.442;2024-02-23T05:26:33;98852.16;;;6.57;100.00
44934;BME280;30667;43.614;1.442;2024-02-23T05:28:58;98848.16;;;6.54;100.00
44934;BME280;30667;43.614;1.442;2024-02-23T05:31:53;98851.09;;;6.52;100.00
44934;BME280;30667;43.614;1.442;2024-02-23T05:34:19;98864.03;;;6.50;100.00
44934;BME280;30667;43.614;1.442;2024-02-23T05:36:44;98849.53;;;6.51;100.00
44934;BME280;30667;43.614;1.442;2024-02-23T05:39:11;98856.75;;;6.56;100.00
44934;BME280;30667;43.614;1.442;2024-02-23T05:41:38;98852.72;;;6.53;100.00
44934;BME280;30667;43.614;1.442;2024-02-23T05:44:04;98854.06;;;6.56;100.00
44934;BME280;30667;43.614;1.442;2024-02-23T05:46:32;98853.78;;;6.58;100.00
44934;BME280;30667;43.614;1.442;2024-02-23T05:48:57;98851.66;;;6.54;100.00
44934;BME280;30667;43.614;1.442;2024-02-23T05:51:23;98856.22;;;6.54;100.00
44934;BME280;30667;43.614;1.442;2024-02-23T05:53:48;98857.03;;;6.54;100.00
44934;BME280;30667;43.614;1.442;2024-02-23T05:56:14;98859.44;;;6.56;100.00
44934;BME280;30667;43.614;1.442;2024-02-23T05:58:39;98862.91;;;6.57;100.00
44934;BME280;30667;43.614;1.442;2024-02-23T06:01:05;98860.75;;;6.59;100.00
44934;BME280;30667;43.614;1.442;2024-02-23T06:03:30;98861.03;;;6.57;100.00
44934;BME280;30667;43.614;1.442;2024-02-23T06:05:56;98860.75;;;6.59;100.00
44934;BME280;30667;43.614;1.442;2024-02-23T06:08:21;98868.53;;;6.60;100.00
44934;BME280;30667;43.614;1.442;2024-02-23T06:10:46;98869.34;;;6.61;100.00
44934;BME280;30667;43.614;1.442;2024-02-23T06:13:12;98872.56;;;6.63;100.00
44934;BME280;30667;43.614;1.442;2024-02-23T06:15:37;98874.69;;;6.66;100.00
44934;BME280;30667;43.614;1.442;2024-02-23T06:18:03;98873.31;;;6.68;100.00
44934;BME280;30667;43.614;1.442;2024-02-23T06:20:29;98874.16;;;6.64;100.00
44934;BME280;30667;43.614;1.442;2024-02-23T06:22:55;98866.91;;;6.64;100.00
44934;BME280;30667;43.614;1.442;2024-02-23T06:25:20;98866.09;;;6.64;100.00
44934;BME280;30667;43.614;1.442;2024-02-23T06:27:45;98869.88;;;6.63;100.00
44934;BME280;30667;43.614;1.442;2024-02-23T06:30:11;98869.88;;;6.63;100.00
44934;BME280;30667;43.614;1.442;2024-02-23T06:32:36;98866.09;;;6.64;100.00
44934;BME280;30667;43.614;1.442;2024-02-23T06:35:02;98873.06;;;6.65;100.00
44934;BME280;30667;43.614;1.442;2024-02-23T06:37:28;98873.59;;;6.67;100.00
44934;BME280;30667;43.614;1.442;2024-02-23T06:39:54;98876.53;;;6.70;100.00
44934;BME280;30667;43.614;1.442;2024-02-23T06:42:22;98872.19;;;6.75;100.00
44934;BME280;30667;43.614;1.442;2024-02-23T06:44:48;98870.88;;;6.72;100.00
44934;BME280;30667;43.614;1.442;2024-02-23T06:47:13;98869.03;;;6.67;100.00
44934;BME280;30667;43.614;1.442;2024-02-23T06:49:43;98874.94;;;6.69;100.00
44934;BME280;30667;43.614;1.442;2024-02-23T06:52:09;98874.38;;;6.72;100.00
44934;BME280;30667;43.614;1.442;2024-02-23T06:54:34;98867.09;;;6.73;100.00
44934;BME280;30667;43.614;1.442;2024-02-23T06:57:00;98878.63;;;6.79;100.00
44934;BME280;30667;43.614;1.442;2024-02-23T06:59:25;98882.09;;;6.79;100.00
44934;BME280;30667;43.614;1.442;2024-02-23T07:01:51;98881.81;;;6.81;100.00
44934;BME280;30667;43.614;1.442;2024-02-23T07:04:17;98890.22;;;6.74;100.00
44934;BME280;30667;43.614;1.442;2024-02-23T07:06:43;98895.34;;;6.70;100.00
44934;BME280;30667;43.614;1.442;2024-02-23T07:09:09;98890.25;;;6.69;100.00
44934;BME280;30667;43.614;1.442;2024-02-23T07:11:36;98903.66;;;6.74;100.00
44934;BME280;30667;43.614;1.442;2024-02-23T07:14:02;98904.50;;;6.69;100.00
44934;BME280;30667;43.614;1.442;2024-02-23T07:16:27;98916.06;;;6.65;100.00
44934;BME280;30667;43.614;1.442;2024-02-23T07:18:52;98902.41;;;6.61;100.00
44934;BME280;30667;43.614;1.442;2024-02-23T07:21:18;98905.63;;;6.58;100.00
44934;BME280;30667;43.614;1.442;2024-02-23T07:23:44;98887.34;;;6.60;100.00
44934;BME280;30667;43.614;1.442;2024-02-23T07:26:09;98895.94;;;6.62;100.00
44934;BME280;30667;43.614;1.442;2024-02-23T07:28:34;98888.16;;;6.61;100.00
44934;BME280;30667;43.614;1.442;2024-02-23T07:31:00;98893.00;;;6.64;100.00
44934;BME280;30667;43.614;1.442;2024-02-23T07:33:25;98891.88;;;6.65;100.00
44934;BME280;30667;43.614;1.442;2024-02-23T07:35:50;98894.72;;;6.84;100.00
44934;BME280;30667;43.614;1.442;2024-02-23T07:38:16;98899.38;;;7.07;100.00
44934;BME280;30667;43.614;1.442;2024-02-23T07:40:43;98893.66;;;7.14;100.00
44934;BME280;30667;43.614;1.442;2024-02-23T07:43:12;98899.25;;;6.88;100.00
44934;BME280;30667;43.614;1.442;2024-02-23T07:45:38;98898.00;;;6.76;100.00
44934;BME280;30667;43.614;1.442;2024-02-23T07:48:04;98893.47;;;6.71;100.00
44934;BME280;30667;43.614;1.442;2024-02-23T07:50:29;98898.31;;;6.69;100.00
44934;BME280;30667;43.614;1.442;2024-02-23T07:52:54;98888.38;;;6.69;100.00
44934;BME280;30667;43.614;1.442;2024-02-23T07:55:20;98887.28;;;6.70;100.00
44934;BME280;30667;43.614;1.442;2024-02-23T07:57:45;98891.84;;;6.75;100.00
44934;BME280;30667;43.614;1.442;2024-02-23T08:00:11;98891.84;;;6.75;100.00
44934;BME280;30667;43.614;1.442;2024-02-23T08:02:37;98877.56;;;6.80;100.00
44934;BME280;30667;43.614;1.442;2024-02-23T08:05:03;98881.78;;;6.86;100.00
44934;BME280;30667;43.614;1.442;2024-02-23T08:07:29;98861.88;;;6.87;100.00
44934;BME280;30667;43.614;1.442;2024-02-23T08:09:56;98868.31;;;6.91;100.00
44934;BME280;30667;43.614;1.442;2024-02-23T08:12:22;98855.56;;;7.02;100.00
44934;BME280;30667;43.614;1.442;2024-02-23T08:14:47;98866.75;;;7.14;100.00
44934;BME280;30667;43.614;1.442;2024-02-23T08:17:14;98869.69;;;7.18;100.00
44934;BME280;30667;43.614;1.442;2024-02-23T08:19:39;98868.03;;;7.22;100.00
44934;BME280;30667;43.614;1.442;2024-02-23T08:22:05;98869.03;;;7.31;100.00
44934;BME280;30667;43.614;1.442;2024-02-23T08:24:30;98874.66;;;7.35;100.00
44934;BME280;30667;43.614;1.442;2024-02-23T08:26:56;98872.81;;;7.30;100.00
44934;BME280;30667;43.614;1.442;2024-02-23T08:29:22;98877.91;;;7.32;100.00
44934;BME280;30667;43.614;1.442;2024-02-23T08:31:48;98882.22;;;7.33;100.00
44934;BME280;30667;43.614;1.442;2024-02-23T08:34:13;98888.59;;;7.37;100.00
44934;BME280;30667;43.614;1.442;2024-02-23T08:36:39;98882.44;;;7.36;100.00
44934;BME280;30667;43.614;1.442;2024-02-23T08:39:04;98890.16;;;7.43;100.00
44934;BME280;30667;43.614;1.442;2024-02-23T08:41:29;98889.66;;;7.41;100.00
44934;BME280;30667;43.614;1.442;2024-02-23T08:43:55;98885.63;;;7.38;100.00
44934;BME280;30667;43.614;1.442;2024-02-23T08:46:21;98887.19;;;7.44;100.00
44934;BME280;30667;43.614;1.442;2024-02-23T08:48:47;98893.91;;;7.47;100.00
44934;BME280;30667;43.614;1.442;2024-02-23T08:51:12;98895.03;;;7.41;100.00
44934;BME280;30667;43.614;1.442;2024-02-23T08:53:38;98899.38;;;7.37;100.00
44934;BME280;30667;43.614;1.442;2024-02-23T08:56:05;98897.03;;;7.30;100.00
44934;BME280;30667;43.614;1.442;2024-02-23T08:58:31;98902.03;;;7.42;100.00
44934;BME280;30667;43.614;1.442;2024-02-23T09:00:57;98895.50;;;7.48;100.00
44934;BME280;30667;43.614;1.442;2024-02-23T09:03:22;98908.94;;;7.48;100.00
44934;BME280;30667;43.614;1.442;2024-02-23T09:05:47;98901.41;;;7.50;100.00
44934;BME280;30667;43.614;1.442;2024-02-23T09:08:13;98898.66;;;7.55;100.00
44934;BME280;30667;43.614;1.442;2024-02-23T09:10:39;98898.09;;;7.58;100.00
44934;BME280;30667;43.614;1.442;2024-02-23T09:13:04;98905.06;;;7.59;100.00
44934;BME280;30667;43.614;1.442;2024-02-23T09:15:31;98892.16;;;7.61;100.00
44934;BME280;30667;43.614;1.442;2024-02-23T09:17:56;98894.91;;;7.56;100.00
44934;BME280;30667;43.614;1.442;2024-02-23T09:20:22;98887.50;;;7.67;100.00
44934;BME280;30667;43.614;1.442;2024-02-23T09:22:48;98905.19;;;7.73;100.00
44934;BME280;30667;43.614;1.442;2024-02-23T09:25:14;98893.75;;;7.87;100.00
44934;BME280;30667;43.614;1.442;2024-02-23T09:27:40;98898.03;;;7.88;100.00
44934;BME280;30667;43.614;1.442;2024-02-23T09:30:13;98906.66;;;7.90;100.00
44934;BME280;30667;43.614;1.442;2024-02-23T09:32:38;98897.69;;;7.94;100.00
44934;BME280;30667;43.614;1.442;2024-02-23T09:35:04;98901.84;;;7.87;100.00
44934;BME280;30667;43.614;1.442;2024-02-23T09:37:30;98903.63;;;7.91;100.00
44934;BME280;30667;43.614;1.442;2024-02-23T09:39:56;98912.03;;;7.90;100.00
44934;BME280;30667;43.614;1.442;2024-02-23T09:42:22;98917.47;;;7.85;100.00
44934;BME280;30667;43.614;1.442;2024-02-23T09:45:00;98916.94;;;7.82;100.00
44934;BME280;30667;43.614;1.442;2024-02-23T09:47:27;98925.59;;;7.79;100.00
44934;BME280;30667;43.614;1.442;2024-02-23T09:49:54;98906.81;;;7.74;100.00
44934;BME280;30667;43.614;1.442;2024-02-23T09:52:20;98916.78;;;7.74;100.00
44934;BME280;30667;43.614;1.442;2024-02-23T09:54:46;98926.38;;;7.80;100.00
44934;BME280;30667;43.614;1.442;2024-02-23T09:57:11;98926.38;;;7.80;100.00
44934;BME280;30667;43.614;1.442;2024-02-23T09:59:38;98927.44;;;7.84;100.00
44934;BME280;30667;43.614;1.442;2024-02-23T10:02:07;98938.50;;;7.82;100.00
44934;BME280;30667;43.614;1.442;2024-02-23T10:04:34;98934.75;;;7.78;100.00
44934;BME280;30667;43.614;1.442;2024-02-23T10:07:00;98935.09;;;7.72;100.00
44934;BME280;30667;43.614;1.442;2024-02-23T10:09:25;98941.97;;;7.59;100.00
44934;BME280;30667;43.614;1.442;2024-02-23T10:11:53;98947.91;;;7.56;100.00
44934;BME280;30667;43.614;1.442;2024-02-23T10:14:20;98939.16;;;7.40;100.00
44934;BME280;30667;43.614;1.442;2024-02-23T10:16:46;98939.78;;;7.32;100.00
44934;BME280;30667;43.614;1.442;2024-02-23T10:19:11;98940.63;;;7.27;100.00
44934;BME280;30667;43.614;1.442;2024-02-23T10:21:36;98940.91;;;7.25;100.00
44934;BME280;30667;43.614;1.442;2024-02-23T10:24:02;98940.69;;;7.22;100.00
44934;BME280;30667;43.614;1.442;2024-02-23T10:26:27;98938.78;;;7.22;100.00
44934;BME280;30667;43.614;1.442;2024-02-23T10:28:53;98945.50;;;7.25;100.00
44934;BME280;30667;43.614;1.442;2024-02-23T10:31:18;98939.34;;;7.19;100.00
44934;BME280;30667;43.614;1.442;2024-02-23T10:33:44;98952.84;;;7.14;100.00
44934;BME280;30667;43.614;1.442;2024-02-23T10:36:11;98943.69;;;7.15;100.00
44934;BME280;30667;43.614;1.442;2024-02-23T10:38:43;98955.41;;;7.30;100.00
44934;BME280;30667;43.614;1.442;2024-02-23T10:41:13;98959.56;;;7.17;100.00
44934;BME280;30667;43.614;1.442;2024-02-23T10:43:47;98961.69;;;7.20;100.00
44934;BME280;30667;43.614;1.442;2024-02-23T10:46:14;98956.81;;;7.22;100.00
44934;BME280;30667;43.614;1.442;2024-02-23T10:48:44;98960.56;;;7.26;100.00
44934;BME280;30667;43.614;1.442;2024-02-23T10:51:14;98954.59;;;7.29;100.00
44934;BME280;30667;43.614;1.442;2024-02-23T10:53:40;98952.78;;;7.24;100.00
44934;BME280;30667;43.614;1.442;2024-02-23T10:56:07;98957.63;;;7.22;100.00
44934;BME280;30667;43.614;1.442;2024-02-23T10:58:32;98947.97;;;7.21;100.00
44934;BME280;30667;43.614;1.442;2024-02-23T11:01:00;98958.63;;;7.32;100.00
44934;BME280;30667;43.614;1.442;2024-02-23T11:03:31;98955.81;;;7.47;100.00
44934;BME280;30667;43.614;1.442;2024-02-23T11:05:59;98964.81;;;7.61;100.00
44934;BME280;30667;43.614;1.442;2024-02-23T11:08:28;98963.13;;;7.71;100.00
44934;BME280;30667;43.614;1.442;2024-02-23T11:10:53;98965.13;;;7.60;100.00
44934;BME280;30667;43.614;1.442;2024-02-23T11:13:30;98969.66;;;7.59;100.00
44934;BME280;30667;43.614;1.442;2024-02-23T11:16:01;98974.94;;;7.45;100.00
44934;BME280;30667;43.614;1.442;2024-02-23T11:18:27;98977.63;;;7.45;100.00
44934;BME280;30667;43.614;1.442;2024-02-23T11:21:03;98976.28;;;7.43;100.00
44934;BME280;30667;43.614;1.442;2024-02-23T11:23:42;98968.97;;;7.49;100.00
44934;BME280;30667;43.614;1.442;2024-02-23T11:26:11;98979.22;;;7.46;100.00
44934;BME280;30667;43.614;1.442;2024-02-23T11:28:50;98974.97;;;7.40;100.00
44934;BME280;30667;43.614;1.442;2024-02-23T11:31:22;98976.06;;;7.39;100.00
44934;BME280;30667;43.614;1.442;2024-02-23T11:33:56;98975.00;;;7.35;100.00
44934;BME280;30667;43.614;1.442;2024-02-23T11:36:23;98974.84;;;7.21;100.00
44934;BME280;30667;43.614;1.442;2024-02-23T11:38:52;98973.28;;;7.15;100.00
44934;BME280;30667;43.614;1.442;2024-02-23T11:41:21;98970.13;;;7.03;100.00
44934;BME280;30667;43.614;1.442;2024-02-23T11:43:47;98963.19;;;6.97;100.00
44934;BME280;30667;43.614;1.442;2024-02-23T11:46:15;98971.78;;;6.99;100.00
44934;BME280;30667;43.614;1.442;2024-02-23T11:48:41;98962.94;;;6.93;100.00
44934;BME280;30667;43.614;1.442;2024-02-23T11:51:06;98968.97;;;6.80;100.00
44934;BME280;30667;43.614;1.442;2024-02-23T11:53:32;98965.72;;;6.78;100.00
44934;BME280;30667;43.614;1.442;2024-02-23T11:55:58;98954.19;;;6.77;100.00
44934;BME280;30667;43.614;1.442;2024-02-23T11:58:23;98972.75;;;6.73;100.00
44934;BME280;30667;43.614;1.442;2024-02-23T12:00:51;98952.28;;;6.78;100.00
44934;BME280;30667;43.614;1.442;2024-02-23T12:03:16;98945.28;;;6.82;100.00
44934;BME280;30667;43.614;1.442;2024-02-23T12:05:42;98939.06;;;6.86;100.00
44934;BME280;30667;43.614;1.442;2024-02-23T12:08:08;98939.81;;;6.92;100.00
44934;BME280;30667;43.614;1.442;2024-02-23T12:10:34;98937.31;;;7.06;100.00
44934;BME280;30667;43.614;1.442;2024-02-23T12:12:59;98933.97;;;7.19;100.00
44934;BME280;30667;43.614;1.442;2024-02-23T12:15:25;98928.19;;;7.36;100.00
44934;BME280;30667;43.614;1.442;2024-02-23T12:17:50;98914.81;;;7.55;100.00
44934;BME280;30667;43.614;1.442;2024-02-23T12:20:16;98912.78;;;7.71;100.00
44934;BME280;30667;43.614;1.442;2024-02-23T12:22:42;98909.44;;;7.79;100.00
44934;BME280;30667;43.614;1.442;2024-02-23T12:25:07;98913.75;;;7.80;100.00
44934;BME280;30667;43.614;1.442;2024-02-23T12:27:33;98910.50;;;7.84;100.00
44934;BME280;30667;43.614;1.442;2024-02-23T12:29:58;98902.41;;;7.84;100.00
44934;BME280;30667;43.614;1.442;2024-02-23T12:32:25;98897.31;;;7.82;100.00
44934;BME280;30667;43.614;1.442;2024-02-23T12:34:52;98894.34;;;7.84;100.00
44934;BME280;30667;43.614;1.442;2024-02-23T12:37:18;98892.66;;;7.88;100.00
44934;BME280;30667;43.614;1.442;2024-02-23T12:39:44;98886.88;;;7.99;100.00
44934;BME280;30667;43.614;1.442;2024-02-23T12:42:09;98886.88;;;7.99;100.00
44934;BME280;30667;43.614;1.442;2024-02-23T12:44:35;98882.06;;;7.96;100.00
44934;BME280;30667;43.614;1.442;2024-02-23T12:47:00;98880.84;;;8.08;100.00
44934;BME280;30667;43.614;1.442;2024-02-23T12:49:26;98870.22;;;8.16;100.00
44934;BME280;30667;43.614;1.442;2024-02-23T12:51:51;98862.38;;;8.20;100.00
44934;BME280;30667;43.614;1.442;2024-02-23T12:54:17;98861.75;;;8.23;100.00